createdAt,value
2018-05-16T00:00:48.846Z,18.2
2018-05-16T00:01:50.455Z,18.1
2018-05-16T00:02:52.078Z,18.2
2018-05-16T00:03:53.685Z,18.2
2018-05-16T00:04:55.304Z,18.3
2018-05-16T00:05:56.923Z,18.2
2018-05-16T00:06:58.539Z,18.2
2018-05-16T00:08:00.162Z,18.3
2018-05-16T00:09:01.773Z,18.3
2018-05-16T00:10:03.390Z,18.2
2018-05-16T00:11:05.011Z,18.2
2018-05-16T00:12:06.616Z,18.3
2018-05-16T00:13:08.231Z,18.2
2018-05-16T00:14:09.854Z,18.3
2018-05-16T00:15:11.474Z,18.2
2018-05-16T00:16:13.084Z,18.2
2018-05-16T00:17:14.704Z,18.2
2018-05-16T00:18:16.322Z,18.2
2018-05-16T00:19:17.934Z,18.1
2018-05-16T00:20:19.553Z,18.2
2018-05-16T00:21:21.168Z,18.3
2018-05-16T00:22:22.784Z,18.1
2018-05-16T00:23:24.403Z,18.1
2018-05-16T00:24:26.014Z,18.1
2018-05-16T00:25:27.633Z,18.3
2018-05-16T00:26:29.249Z,18.2
2018-05-16T00:27:30.864Z,18.0
2018-05-16T00:28:32.480Z,18.1
2018-05-16T00:29:34.102Z,18.1
2018-05-16T00:30:35.714Z,18.1
2018-05-16T00:31:37.331Z,18.1
2018-05-16T00:32:38.949Z,18.0
2018-05-16T00:33:40.560Z,18.0
2018-05-16T00:34:42.173Z,18.0
2018-05-16T00:35:43.795Z,17.9
2018-05-16T00:36:45.411Z,17.9
2018-05-16T00:37:47.026Z,18.0
2018-05-16T00:38:48.651Z,17.9
2018-05-16T00:39:50.264Z,17.9
2018-05-16T00:40:51.875Z,17.9
2018-05-16T00:41:53.491Z,17.9
2018-05-16T00:42:55.106Z,17.8
2018-05-16T00:43:56.726Z,17.9
2018-05-16T00:44:58.343Z,17.8
2018-05-16T00:45:59.958Z,17.9
2018-05-16T00:47:01.572Z,17.8
2018-05-16T00:48:03.186Z,17.8
2018-05-16T00:49:04.908Z,17.7
2018-05-16T00:50:06.430Z,17.8
2018-05-16T00:51:08.045Z,17.6
2018-05-16T00:52:09.663Z,17.8
2018-05-16T00:53:11.280Z,17.7
2018-05-16T00:54:13.522Z,17.8
2018-05-16T00:55:15.141Z,17.6
2018-05-16T00:56:16.752Z,17.6
2018-05-16T00:57:18.365Z,17.6
2018-05-16T00:58:19.987Z,17.6
2018-05-16T00:59:21.594Z,17.7
2018-05-16T01:00:23.213Z,17.5
2018-05-16T01:01:24.828Z,17.5
2018-05-16T01:02:26.440Z,17.5
2018-05-16T01:03:28.063Z,17.5
2018-05-16T01:04:29.680Z,17.4
2018-05-16T01:05:31.293Z,17.5
2018-05-16T01:06:32.913Z,17.4
2018-05-16T01:07:34.521Z,17.3
2018-05-16T01:08:36.134Z,17.3
2018-05-16T01:09:37.747Z,17.3
2018-05-16T01:10:39.368Z,17.1
2018-05-16T01:11:40.988Z,17.1
2018-05-16T01:12:42.599Z,17.0
2018-05-16T01:13:44.220Z,17.0
2018-05-16T01:14:45.832Z,16.8
2018-05-16T01:15:47.453Z,16.8
2018-05-16T01:16:49.062Z,16.6
2018-05-16T01:17:50.675Z,16.6
2018-05-16T01:18:52.294Z,16.6
2018-05-16T01:19:53.909Z,16.3
2018-05-16T01:20:55.527Z,16.4
2018-05-16T01:21:57.142Z,16.4
2018-05-16T01:22:58.761Z,16.3
2018-05-16T01:24:00.380Z,16.3
2018-05-16T01:25:01.988Z,16.3
2018-05-16T01:26:03.608Z,16.2
2018-05-16T01:27:05.222Z,16.2
2018-05-16T01:28:06.841Z,16.1
2018-05-16T01:29:08.450Z,16.0
2018-05-16T01:30:10.064Z,16.1
2018-05-16T01:31:11.682Z,16.0
2018-05-16T01:32:13.303Z,15.9
2018-05-16T01:33:14.917Z,15.9
2018-05-16T01:34:16.537Z,15.9
2018-05-16T01:35:18.144Z,15.8
2018-05-16T01:36:19.765Z,15.7
2018-05-16T01:37:21.380Z,15.7
2018-05-16T01:38:22.993Z,15.7
2018-05-16T01:39:24.616Z,15.5
2018-05-16T01:40:26.226Z,15.4
2018-05-16T01:41:27.840Z,15.3
2018-05-16T01:42:29.464Z,15.2
2018-05-16T01:43:31.070Z,15.2
2018-05-16T01:44:32.686Z,15.1
2018-05-16T01:45:34.304Z,15.1
2018-05-16T01:46:35.914Z,15.0
2018-05-16T01:47:37.534Z,15.0
2018-05-16T01:48:39.150Z,15.0
2018-05-16T01:49:40.766Z,15.0
2018-05-16T01:50:42.382Z,14.8
2018-05-16T01:51:43.997Z,15.0
2018-05-16T01:52:45.610Z,14.9
2018-05-16T01:53:47.224Z,14.9
2018-05-16T01:54:48.835Z,14.9
2018-05-16T01:55:50.449Z,15.0
2018-05-16T01:56:52.072Z,14.8
2018-05-16T01:57:53.682Z,14.9
2018-05-16T01:58:55.298Z,14.9
2018-05-16T01:59:56.919Z,14.9
2018-05-16T02:00:58.526Z,14.8
2018-05-16T02:02:00.147Z,14.8
2018-05-16T02:03:01.775Z,14.8
2018-05-16T02:04:03.385Z,14.8
2018-05-16T02:05:04.999Z,14.8
2018-05-16T02:06:06.617Z,14.8
2018-05-16T02:07:08.228Z,14.8
2018-05-16T02:08:09.849Z,14.7
2018-05-16T02:09:11.466Z,14.7
2018-05-16T02:10:13.083Z,14.7
2018-05-16T02:11:14.697Z,14.6
2018-05-16T02:12:16.314Z,14.7
2018-05-16T02:13:17.924Z,14.6
2018-05-16T02:14:19.546Z,14.7
2018-05-16T02:15:21.159Z,14.6
2018-05-16T02:16:22.785Z,14.7
2018-05-16T02:17:24.399Z,14.6
2018-05-16T02:18:26.010Z,14.6
2018-05-16T02:19:27.629Z,14.6
2018-05-16T02:20:29.239Z,14.6
2018-05-16T02:21:30.898Z,14.6
2018-05-16T02:22:32.471Z,14.5
2018-05-16T02:23:34.086Z,14.4
2018-05-16T02:24:35.708Z,14.5
2018-05-16T02:25:37.320Z,14.6
2018-05-16T02:26:38.934Z,14.6
2018-05-16T02:27:40.550Z,14.4
2018-05-16T02:28:42.163Z,14.4
2018-05-16T02:29:43.777Z,14.4
2018-05-16T02:30:45.399Z,14.4
2018-05-16T02:31:47.015Z,14.4
2018-05-16T02:32:48.631Z,14.3
2018-05-16T02:33:50.248Z,14.4
2018-05-16T02:34:51.862Z,14.4
2018-05-16T02:35:53.477Z,14.4
2018-05-16T02:36:55.091Z,14.4
2018-05-16T02:37:56.704Z,14.4
2018-05-16T02:38:58.325Z,14.4
2018-05-16T02:39:59.934Z,14.4
2018-05-16T02:41:01.557Z,14.5
2018-05-16T02:42:03.176Z,14.4
2018-05-16T02:43:04.783Z,14.4
2018-05-16T02:44:06.406Z,14.4
2018-05-16T02:45:08.016Z,14.4
2018-05-16T02:46:09.640Z,14.3
2018-05-16T02:47:11.252Z,14.4
2018-05-16T02:48:12.856Z,14.3
2018-05-16T02:49:14.483Z,14.2
2018-05-16T02:50:16.094Z,14.3
2018-05-16T02:51:17.718Z,14.3
2018-05-16T02:52:19.338Z,14.2
2018-05-16T02:53:20.949Z,14.2
2018-05-16T02:54:22.676Z,14.2
2018-05-16T02:55:24.178Z,14.2
2018-05-16T02:56:25.793Z,14.2
2018-05-16T02:57:27.408Z,14.1
2018-05-16T02:58:29.024Z,14.1
2018-05-16T02:59:30.644Z,14.1
2018-05-16T03:00:32.264Z,14.0
2018-05-16T03:01:33.870Z,13.9
2018-05-16T03:02:35.484Z,14.0
2018-05-16T03:03:37.107Z,14.0
2018-05-16T03:04:39.350Z,14.0
2018-05-16T03:05:41.507Z,13.9
2018-05-16T03:06:43.715Z,13.8
2018-05-16T03:07:45.334Z,13.9
2018-05-16T03:08:46.951Z,13.7
2018-05-16T03:09:48.568Z,13.9
2018-05-16T03:10:50.180Z,13.9
2018-05-16T03:11:51.798Z,13.8
2018-05-16T03:12:53.410Z,13.9
2018-05-16T03:13:55.025Z,13.9
2018-05-16T03:14:56.641Z,13.8
2018-05-16T03:15:58.255Z,13.9
2018-05-16T03:16:59.867Z,13.9
2018-05-16T03:18:01.486Z,13.9
2018-05-16T03:19:03.103Z,13.8
2018-05-16T03:20:04.715Z,13.9
2018-05-16T03:21:06.335Z,13.8
2018-05-16T03:22:07.955Z,13.7
2018-05-16T03:23:09.573Z,13.7
2018-05-16T03:24:11.182Z,13.7
2018-05-16T03:25:12.795Z,13.7
2018-05-16T03:26:14.418Z,13.6
2018-05-16T03:27:16.036Z,13.7
2018-05-16T03:28:17.656Z,13.6
2018-05-16T03:29:19.275Z,13.6
2018-05-16T03:30:20.885Z,13.6
2018-05-16T03:31:22.501Z,13.7
2018-05-16T03:32:24.120Z,13.6
2018-05-16T03:33:25.732Z,13.6
2018-05-16T03:34:27.347Z,13.7
2018-05-16T03:35:28.965Z,13.8
2018-05-16T03:36:30.600Z,13.7
2018-05-16T03:37:32.198Z,13.7
2018-05-16T03:38:33.823Z,13.7
2018-05-16T03:39:35.461Z,13.6
2018-05-16T03:40:37.067Z,13.6
2018-05-16T03:41:38.673Z,13.6
2018-05-16T03:42:40.295Z,13.5
2018-05-16T03:43:41.911Z,13.5
2018-05-16T03:44:43.525Z,13.6
2018-05-16T03:45:45.151Z,13.5
2018-05-16T03:46:46.758Z,13.5
2018-05-16T03:47:48.378Z,13.5
2018-05-16T03:48:49.995Z,13.6
2018-05-16T03:49:51.612Z,13.6
2018-05-16T03:50:53.230Z,13.6
2018-05-16T03:51:54.879Z,13.5
2018-05-16T03:52:56.465Z,13.5
2018-05-16T03:53:58.090Z,13.4
2018-05-16T03:54:59.702Z,13.5
2018-05-16T03:56:01.320Z,13.4
2018-05-16T03:57:02.948Z,13.5
2018-05-16T03:58:04.564Z,13.5
2018-05-16T03:59:06.178Z,13.5
2018-05-16T04:00:07.801Z,13.5
2018-05-16T04:01:09.412Z,13.4
2018-05-16T04:02:11.030Z,13.5
2018-05-16T04:03:12.648Z,13.4
2018-05-16T04:04:14.273Z,13.4
2018-05-16T04:05:15.898Z,13.5
2018-05-16T04:06:17.507Z,13.4
2018-05-16T04:07:19.127Z,13.4
2018-05-16T04:08:20.739Z,13.5
2018-05-16T04:09:22.365Z,13.4
2018-05-16T04:10:23.979Z,13.4
2018-05-16T04:11:25.604Z,13.4
2018-05-16T04:12:27.229Z,13.3
2018-05-16T04:13:28.899Z,13.5
2018-05-16T04:14:30.464Z,13.4
2018-05-16T04:15:32.085Z,13.4
2018-05-16T04:16:33.700Z,13.6
2018-05-16T04:17:35.322Z,13.5
2018-05-16T04:18:36.944Z,13.5
2018-05-16T04:19:38.567Z,13.3
2018-05-16T04:20:40.179Z,13.4
2018-05-16T04:21:41.796Z,13.4
2018-05-16T04:22:43.419Z,13.4
2018-05-16T04:23:45.035Z,13.4
2018-05-16T04:24:46.655Z,13.4
2018-05-16T04:25:48.277Z,13.3
2018-05-16T04:26:49.900Z,13.5
2018-05-16T04:27:51.514Z,13.4
2018-05-16T04:28:53.209Z,13.4
2018-05-16T04:29:54.752Z,13.3
2018-05-16T04:30:56.367Z,13.4
2018-05-16T04:31:57.991Z,13.5
2018-05-16T04:33:00.449Z,13.4
2018-05-16T04:34:02.074Z,13.4
2018-05-16T04:35:03.693Z,13.6
2018-05-16T04:36:05.328Z,13.5
2018-05-16T04:37:06.948Z,13.4
2018-05-16T04:38:08.569Z,13.4
2018-05-16T04:39:10.192Z,13.6
2018-05-16T04:40:11.805Z,13.4
2018-05-16T04:41:13.421Z,13.5
2018-05-16T04:42:15.043Z,13.5
2018-05-16T04:43:16.666Z,13.5
2018-05-16T04:44:18.280Z,13.5
2018-05-16T04:45:19.905Z,13.6
2018-05-16T04:46:21.520Z,13.6
2018-05-16T04:47:23.142Z,13.6
2018-05-16T04:48:24.767Z,13.6
2018-05-16T04:49:26.381Z,13.7
2018-05-16T04:50:27.999Z,13.8
2018-05-16T04:51:29.622Z,13.8
2018-05-16T04:52:31.237Z,13.7
2018-05-16T04:53:32.860Z,13.7
2018-05-16T04:54:34.479Z,13.7
2018-05-16T04:55:36.099Z,13.8
2018-05-16T04:56:37.719Z,13.9
2018-05-16T04:57:39.343Z,13.9
2018-05-16T04:58:40.962Z,13.9
2018-05-16T04:59:42.584Z,14.0
2018-05-16T05:00:44.202Z,13.9
2018-05-16T05:01:45.821Z,14.0
2018-05-16T05:02:47.448Z,13.9
2018-05-16T05:03:49.063Z,14.2
2018-05-16T05:04:50.688Z,14.1
2018-05-16T05:05:52.303Z,14.1
2018-05-16T05:06:53.923Z,14.0
2018-05-16T05:07:55.542Z,14.1
2018-05-16T05:08:57.182Z,14.2
2018-05-16T05:09:58.795Z,14.1
2018-05-16T05:11:00.410Z,14.4
2018-05-16T05:12:02.036Z,14.3
2018-05-16T05:13:03.656Z,14.3
2018-05-16T05:14:05.279Z,14.5
2018-05-16T05:15:06.899Z,14.5
2018-05-16T05:16:08.529Z,14.4
2018-05-16T05:17:10.168Z,14.7
2018-05-16T05:18:11.872Z,14.7
2018-05-16T05:19:13.473Z,14.7
2018-05-16T05:20:15.091Z,14.7
2018-05-16T05:21:16.716Z,14.7
2018-05-16T05:22:18.336Z,14.9
2018-05-16T05:23:19.968Z,14.8
2018-05-16T05:24:21.585Z,14.7
2018-05-16T05:25:23.197Z,14.9
2018-05-16T05:26:24.817Z,14.9
2018-05-16T05:27:26.453Z,14.9
2018-05-16T05:28:28.068Z,14.9
2018-05-16T05:29:29.693Z,14.9
2018-05-16T05:30:31.317Z,15.1
2018-05-16T05:31:32.933Z,15.2
2018-05-16T05:32:34.551Z,15.2
2018-05-16T05:33:36.176Z,15.1
2018-05-16T05:34:37.791Z,15.3
2018-05-16T05:35:39.414Z,15.2
2018-05-16T05:36:41.038Z,15.3
2018-05-16T05:37:42.659Z,15.3
2018-05-16T05:38:44.277Z,15.3
2018-05-16T05:39:45.895Z,15.4
2018-05-16T05:40:47.520Z,15.4
2018-05-16T05:41:49.138Z,15.4
2018-05-16T05:42:50.764Z,15.4
2018-05-16T05:43:52.382Z,15.5
2018-05-16T05:44:54.004Z,15.6
2018-05-16T05:45:55.700Z,15.6
2018-05-16T05:46:57.404Z,15.5
2018-05-16T05:47:59.029Z,15.6
2018-05-16T05:49:00.649Z,15.6
2018-05-16T05:50:02.274Z,15.7
2018-05-16T05:51:04.204Z,15.7
2018-05-16T05:52:05.822Z,15.8
2018-05-16T05:53:07.462Z,15.8
2018-05-16T05:54:09.084Z,15.8
2018-05-16T05:55:10.705Z,15.9
2018-05-16T05:56:12.329Z,16.0
2018-05-16T05:57:14.033Z,15.9
2018-05-16T05:58:15.662Z,16.0
2018-05-16T05:59:17.276Z,16.0
2018-05-16T06:00:18.906Z,16.1
2018-05-16T06:01:20.528Z,16.1
2018-05-16T06:02:22.180Z,16.1
2018-05-16T06:03:23.799Z,16.2
2018-05-16T06:04:25.421Z,16.2
2018-05-16T06:05:27.054Z,16.2
2018-05-16T06:06:28.666Z,16.3
2018-05-16T06:07:30.288Z,16.3
2018-05-16T06:08:31.905Z,16.3
2018-05-16T06:09:33.527Z,16.3
2018-05-16T06:10:35.151Z,16.4
2018-05-16T06:11:36.763Z,16.5
2018-05-16T06:12:38.419Z,16.5
2018-05-16T06:13:40.014Z,16.5
2018-05-16T06:14:41.639Z,16.5
2018-05-16T06:15:43.260Z,16.6
2018-05-16T06:16:44.876Z,16.7
2018-05-16T06:17:46.507Z,17.0
2018-05-16T06:18:48.124Z,17.0
2018-05-16T06:19:49.816Z,17.7
2018-05-16T06:20:51.373Z,18.8
2018-05-16T06:21:52.992Z,20.3
2018-05-16T06:22:54.616Z,21.5
2018-05-16T06:23:56.243Z,22.7
2018-05-16T06:24:57.860Z,23.6
2018-05-16T06:25:59.485Z,24.3
2018-05-16T06:27:01.152Z,25.2
2018-05-16T06:28:02.726Z,25.8
2018-05-16T06:29:04.352Z,26.5
2018-05-16T06:30:05.968Z,27.3
2018-05-16T06:31:07.589Z,27.6
2018-05-16T06:32:09.214Z,28.1
2018-05-16T06:33:10.838Z,28.7
2018-05-16T06:34:12.461Z,28.7
2018-05-16T06:35:14.089Z,29.0
2018-05-16T06:36:15.720Z,29.4
2018-05-16T06:37:17.340Z,29.1
2018-05-16T06:38:18.965Z,29.0
2018-05-16T06:39:20.668Z,29.6
2018-05-16T06:40:22.269Z,30.0
2018-05-16T06:41:23.848Z,30.2
2018-05-16T06:42:25.474Z,30.4
2018-05-16T06:43:27.099Z,30.6
2018-05-16T06:44:28.721Z,31.1
2018-05-16T06:45:30.346Z,31.5
2018-05-16T06:46:31.984Z,31.9
2018-05-16T06:47:33.611Z,32.1
2018-05-16T06:48:35.240Z,32.3
2018-05-16T06:49:36.865Z,32.6
2018-05-16T06:50:38.494Z,32.7
2018-05-16T06:51:40.117Z,32.9
2018-05-16T06:52:41.747Z,33.0
2018-05-16T06:53:43.373Z,33.2
2018-05-16T06:54:45.000Z,33.4
2018-05-16T06:55:46.633Z,33.5
2018-05-16T06:56:48.268Z,33.8
2018-05-16T06:57:53.430Z,34.0
2018-05-16T06:58:54.943Z,34.3
2018-05-16T06:59:56.575Z,34.4
2018-05-16T07:00:58.203Z,34.5
2018-05-16T07:01:59.835Z,34.6
2018-05-16T07:03:01.461Z,34.9
2018-05-16T07:04:03.115Z,34.9
2018-05-16T07:05:04.724Z,35.2
2018-05-16T07:06:06.356Z,35.4
2018-05-16T07:07:07.987Z,35.3
2018-05-16T07:08:09.623Z,35.4
2018-05-16T07:09:11.256Z,35.7
2018-05-16T07:10:12.887Z,35.6
2018-05-16T07:11:14.520Z,35.8
2018-05-16T07:12:16.149Z,36.1
2018-05-16T07:13:17.802Z,36.4
2018-05-16T07:14:19.427Z,36.3
2018-05-16T07:15:21.057Z,36.5
2018-05-16T07:16:22.698Z,36.6
2018-05-16T07:17:24.326Z,36.6
2018-05-16T07:18:25.963Z,36.4
2018-05-16T07:19:27.593Z,36.4
2018-05-16T07:20:29.228Z,36.1
2018-05-16T07:21:30.865Z,35.9
2018-05-16T07:22:33.223Z,35.8
2018-05-16T07:23:34.866Z,36.0
2018-05-16T07:24:36.494Z,36.2
2018-05-16T07:25:38.132Z,35.2
2018-05-16T07:26:39.764Z,35.2
2018-05-16T07:27:41.399Z,35.6
2018-05-16T07:28:43.031Z,36.2
2018-05-16T07:29:44.662Z,35.3
2018-05-16T07:30:46.299Z,34.4
2018-05-16T07:31:47.928Z,33.5
2018-05-16T07:32:49.569Z,32.9
2018-05-16T07:33:51.198Z,31.8
2018-05-16T07:34:52.832Z,31.2
2018-05-16T07:35:54.460Z,30.6
2018-05-16T07:36:56.095Z,30.3
2018-05-16T07:37:57.727Z,30.0
2018-05-16T07:38:59.358Z,29.8
2018-05-16T07:40:01.011Z,29.6
2018-05-16T07:41:02.712Z,29.3
2018-05-16T07:42:04.263Z,28.9
2018-05-16T07:43:05.892Z,28.7
2018-05-16T07:44:07.522Z,28.5
2018-05-16T07:45:09.158Z,28.0
2018-05-16T07:46:10.790Z,27.7
2018-05-16T07:47:12.434Z,27.4
2018-05-16T07:48:14.060Z,27.5
2018-05-16T07:49:15.683Z,27.8
2018-05-16T07:50:17.310Z,27.4
2018-05-16T07:51:18.956Z,27.6
2018-05-16T07:52:20.573Z,27.5
2018-05-16T07:53:22.197Z,27.6
2018-05-16T07:54:23.834Z,27.8
2018-05-16T07:55:25.469Z,26.9
2018-05-16T07:56:27.086Z,26.8
2018-05-16T07:57:28.711Z,26.8
2018-05-16T07:58:30.344Z,27.0
2018-05-16T07:59:31.969Z,26.9
2018-05-16T08:00:33.600Z,27.3
2018-05-16T08:01:35.290Z,28.4
2018-05-16T08:02:37.036Z,27.8
2018-05-16T08:03:38.731Z,27.6
2018-05-16T08:04:40.364Z,26.9
2018-05-16T08:05:41.991Z,26.8
2018-05-16T08:06:43.617Z,26.4
2018-05-16T08:07:45.247Z,26.1
2018-05-16T08:08:46.871Z,25.9
2018-05-16T08:09:48.506Z,25.8
2018-05-16T08:10:50.158Z,25.7
2018-05-16T08:11:51.784Z,25.8
2018-05-16T08:12:53.416Z,25.7
2018-05-16T08:13:55.046Z,25.5
2018-05-16T08:14:56.670Z,25.5
2018-05-16T08:15:58.302Z,25.6
2018-05-16T08:16:59.931Z,25.4
2018-05-16T08:18:01.551Z,25.1
2018-05-16T08:19:03.183Z,25.2
2018-05-16T08:20:04.806Z,25.2
2018-05-16T08:21:06.431Z,25.2
2018-05-16T08:22:08.064Z,25.2
2018-05-16T08:23:09.688Z,25.0
2018-05-16T08:24:11.324Z,25.0
2018-05-16T08:25:12.945Z,24.8
2018-05-16T08:26:14.578Z,24.9
2018-05-16T08:27:16.198Z,25.2
2018-05-16T08:28:17.825Z,25.4
2018-05-16T08:29:19.456Z,25.6
2018-05-16T08:30:21.085Z,25.7
2018-05-16T08:31:22.725Z,25.9
2018-05-16T08:32:24.338Z,26.5
2018-05-16T08:33:25.970Z,26.7
2018-05-16T08:34:27.591Z,26.8
2018-05-16T08:35:29.239Z,27.0
2018-05-16T08:36:30.879Z,27.1
2018-05-16T08:37:32.504Z,27.2
2018-05-16T08:38:34.139Z,27.6
2018-05-16T08:39:35.777Z,27.5
2018-05-16T08:40:37.408Z,27.7
2018-05-16T08:41:39.031Z,28.3
2018-05-16T08:42:40.667Z,29.6
2018-05-16T08:43:42.295Z,30.8
2018-05-16T08:44:43.922Z,31.3
2018-05-16T08:45:45.557Z,31.3
2018-05-16T08:46:47.187Z,31.8
2018-05-16T08:47:48.816Z,32.2
2018-05-16T08:48:50.442Z,33.0
2018-05-16T08:49:52.074Z,33.0
2018-05-16T08:50:53.707Z,32.6
2018-05-16T08:51:55.337Z,32.6
2018-05-16T08:52:56.998Z,32.2
2018-05-16T08:53:58.624Z,32.7
2018-05-16T08:55:00.259Z,33.4
2018-05-16T08:56:01.895Z,33.7
2018-05-16T08:57:03.529Z,33.2
2018-05-16T08:58:05.160Z,34.0
2018-05-16T08:59:06.797Z,33.4
2018-05-16T09:00:08.428Z,32.7
2018-05-16T09:01:10.072Z,32.8
2018-05-16T09:02:11.699Z,33.4
2018-05-16T09:03:13.344Z,33.7
2018-05-16T09:04:14.975Z,34.4
2018-05-16T09:05:16.604Z,34.9
2018-05-16T09:06:18.244Z,35.4
2018-05-16T09:07:19.881Z,35.7
2018-05-16T09:08:21.516Z,36.1
2018-05-16T09:09:23.151Z,36.6
2018-05-16T09:10:24.781Z,37.0
2018-05-16T09:11:26.428Z,36.6
2018-05-16T09:12:28.063Z,35.6
2018-05-16T09:13:29.703Z,35.0
2018-05-16T09:14:31.335Z,34.3
2018-05-16T09:15:32.971Z,33.8
2018-05-16T09:16:34.626Z,33.4
2018-05-16T09:17:36.265Z,32.8
2018-05-16T09:18:37.903Z,33.1
2018-05-16T09:19:39.542Z,33.6
2018-05-16T09:20:41.179Z,34.1
2018-05-16T09:21:42.812Z,33.9
2018-05-16T09:22:44.449Z,33.8
2018-05-16T09:23:46.079Z,34.1
2018-05-16T09:24:47.718Z,34.4
2018-05-16T09:25:49.351Z,34.5
2018-05-16T09:26:50.989Z,35.1
2018-05-16T09:27:52.623Z,35.6
2018-05-16T09:28:54.266Z,35.7
2018-05-16T09:29:55.895Z,36.2
2018-05-16T09:30:57.535Z,36.6
2018-05-16T09:31:59.171Z,37.1
2018-05-16T09:33:00.813Z,36.4
2018-05-16T09:34:02.448Z,35.7
2018-05-16T09:35:04.089Z,34.6
2018-05-16T09:36:05.718Z,34.1
2018-05-16T09:37:07.353Z,33.7
2018-05-16T09:38:08.990Z,32.9
2018-05-16T09:39:10.628Z,32.4
2018-05-16T09:40:12.318Z,32.6
2018-05-16T09:41:13.901Z,33.2
2018-05-16T09:42:15.538Z,33.5
2018-05-16T09:43:17.172Z,33.1
2018-05-16T09:44:18.803Z,32.7
2018-05-16T09:45:20.437Z,32.6
2018-05-16T09:46:22.076Z,33.0
2018-05-16T09:47:23.712Z,32.7
2018-05-16T09:48:25.351Z,33.2
2018-05-16T09:49:26.986Z,33.6
2018-05-16T09:50:28.619Z,33.4
2018-05-16T09:51:30.268Z,32.9
2018-05-16T09:52:31.891Z,33.0
2018-05-16T09:53:33.524Z,33.5
2018-05-16T09:54:35.184Z,33.9
2018-05-16T09:55:36.817Z,34.3
2018-05-16T09:56:38.458Z,34.7
2018-05-16T09:57:40.098Z,35.0
2018-05-16T09:58:41.728Z,35.2
2018-05-16T09:59:43.390Z,35.6
2018-05-16T10:00:45.022Z,35.7
2018-05-16T10:01:46.667Z,35.5
2018-05-16T10:02:48.302Z,35.1
2018-05-16T10:03:49.942Z,34.6
2018-05-16T10:04:51.574Z,32.8
2018-05-16T10:05:53.206Z,33.3
2018-05-16T10:06:54.847Z,32.7
2018-05-16T10:07:56.481Z,33.0
2018-05-16T10:08:58.122Z,33.2
2018-05-16T10:09:59.765Z,33.3
2018-05-16T10:11:01.389Z,32.8
2018-05-16T10:12:03.025Z,32.3
2018-05-16T10:13:04.663Z,31.5
2018-05-16T10:14:06.293Z,31.4
2018-05-16T10:15:07.930Z,31.0
2018-05-16T10:16:09.574Z,30.5
2018-05-16T10:17:11.197Z,30.3
2018-05-16T10:18:12.837Z,30.4
2018-05-16T10:19:14.468Z,30.2
2018-05-16T10:20:16.154Z,30.1
2018-05-16T10:21:17.734Z,29.6
2018-05-16T10:22:19.366Z,29.4
2018-05-16T10:23:21.007Z,29.2
2018-05-16T10:24:22.633Z,29.1
2018-05-16T10:25:24.269Z,28.8
2018-05-16T10:26:25.905Z,28.7
2018-05-16T10:27:27.533Z,28.5
2018-05-16T10:28:29.161Z,28.4
2018-05-16T10:29:30.799Z,28.4
2018-05-16T10:30:32.429Z,28.3
2018-05-16T10:31:34.071Z,28.4
2018-05-16T10:32:35.698Z,28.5
2018-05-16T10:33:37.326Z,28.5
2018-05-16T10:34:39.019Z,28.5
2018-05-16T10:35:40.585Z,28.7
2018-05-16T10:36:42.221Z,28.6
2018-05-16T10:37:43.847Z,28.8
2018-05-16T10:38:45.481Z,29.0
2018-05-16T10:39:47.113Z,28.9
2018-05-16T10:40:48.738Z,28.9
2018-05-16T10:41:50.366Z,28.6
2018-05-16T10:42:52.001Z,28.3
2018-05-16T10:43:53.627Z,28.5
2018-05-16T10:44:55.265Z,28.7
2018-05-16T10:45:56.895Z,28.7
2018-05-16T10:46:58.524Z,28.4
2018-05-16T10:48:00.159Z,28.9
2018-05-16T10:49:02.002Z,28.7
2018-05-16T10:50:03.615Z,28.8
2018-05-16T10:51:05.245Z,28.6
2018-05-16T10:52:06.922Z,28.4
2018-05-16T10:53:08.506Z,28.5
2018-05-16T10:54:10.133Z,28.5
2018-05-16T10:55:11.768Z,28.3
2018-05-16T10:56:13.398Z,28.1
2018-05-16T10:57:15.025Z,28.2
2018-05-16T10:58:16.653Z,28.0
2018-05-16T10:59:18.278Z,27.9
2018-05-16T11:00:19.913Z,28.0
2018-05-16T11:01:21.544Z,27.8
2018-05-16T11:02:23.177Z,28.0
2018-05-16T11:03:24.822Z,28.3
2018-05-16T11:04:26.437Z,28.7
2018-05-16T11:05:28.068Z,28.9
2018-05-16T11:06:29.776Z,28.9
2018-05-16T11:07:31.327Z,29.0
2018-05-16T11:08:32.961Z,29.1
2018-05-16T11:09:34.589Z,29.0
2018-05-16T11:10:36.335Z,29.1
2018-05-16T11:11:37.870Z,29.3
2018-05-16T11:12:39.496Z,29.5
2018-05-16T11:13:41.138Z,29.5
2018-05-16T11:14:42.762Z,29.5
2018-05-16T11:15:44.399Z,29.7
2018-05-16T11:16:46.027Z,29.9
2018-05-16T11:17:47.657Z,29.7
2018-05-16T11:18:49.292Z,29.9
2018-05-16T11:19:50.913Z,30.2
2018-05-16T11:20:52.550Z,30.4
2018-05-16T11:21:54.180Z,30.8
2018-05-16T11:22:55.818Z,30.8
2018-05-16T11:23:57.452Z,30.7
2018-05-16T11:24:59.078Z,30.6
2018-05-16T11:26:00.707Z,30.2
2018-05-16T11:27:02.344Z,29.9
2018-05-16T11:28:03.969Z,29.6
2018-05-16T11:29:05.605Z,29.6
2018-05-16T11:30:07.239Z,29.1
2018-05-16T11:31:08.865Z,29.1
2018-05-16T11:32:10.494Z,29.0
2018-05-16T11:33:12.124Z,28.9
2018-05-16T11:34:13.748Z,28.7
2018-05-16T11:35:15.382Z,28.6
2018-05-16T11:36:17.013Z,28.6
2018-05-16T11:37:18.645Z,28.4
2018-05-16T11:38:20.274Z,28.5
2018-05-16T11:39:21.904Z,28.1
2018-05-16T11:40:23.530Z,28.0
2018-05-16T11:41:25.160Z,27.7
2018-05-16T11:42:26.807Z,27.5
2018-05-16T11:43:28.410Z,27.3
2018-05-16T11:44:30.037Z,27.2
2018-05-16T11:45:31.664Z,27.1
2018-05-16T11:46:33.288Z,27.0
2018-05-16T11:47:34.920Z,26.8
2018-05-16T11:48:36.568Z,26.6
2018-05-16T11:49:38.189Z,26.4
2018-05-16T11:50:39.821Z,26.1
2018-05-16T11:51:41.446Z,26.0
2018-05-16T11:52:43.074Z,26.0
2018-05-16T11:53:44.704Z,25.8
2018-05-16T11:54:46.332Z,25.8
2018-05-16T11:55:47.955Z,25.8
2018-05-16T11:56:49.579Z,25.6
2018-05-16T11:57:51.212Z,25.3
2018-05-16T11:58:52.840Z,25.1
2018-05-16T11:59:54.471Z,25.1
2018-05-16T12:00:56.091Z,25.1
2018-05-16T12:01:57.717Z,25.0
2018-05-16T12:02:59.348Z,24.6
2018-05-16T12:04:00.970Z,24.6
2018-05-16T12:05:02.597Z,24.3
2018-05-16T12:06:04.220Z,23.9
2018-05-16T12:07:05.850Z,23.7
2018-05-16T12:08:07.470Z,23.6
2018-05-16T12:09:09.101Z,23.6
2018-05-16T12:10:10.716Z,23.3
2018-05-16T12:11:12.347Z,22.9
2018-05-16T12:12:13.974Z,22.7
2018-05-16T12:13:15.594Z,22.4
2018-05-16T12:14:17.221Z,22.3
2018-05-16T12:15:18.847Z,22.2
2018-05-16T12:16:20.470Z,22.1
2018-05-16T12:17:22.097Z,22.0
2018-05-16T12:18:23.717Z,21.7
2018-05-16T12:19:25.346Z,21.5
2018-05-16T12:20:26.967Z,21.5
2018-05-16T12:21:28.590Z,21.4
2018-05-16T12:22:30.217Z,21.3
2018-05-16T12:23:31.844Z,21.2
2018-05-16T12:24:33.464Z,21.1
2018-05-16T12:25:35.087Z,21.2
2018-05-16T12:26:36.719Z,21.2
2018-05-16T12:27:38.347Z,21.1
2018-05-16T12:28:39.966Z,21.3
2018-05-16T12:29:41.594Z,21.4
2018-05-16T12:30:43.216Z,21.3
2018-05-16T12:31:44.841Z,21.2
2018-05-16T12:32:46.463Z,21.3
2018-05-16T12:33:48.083Z,21.3
2018-05-16T12:34:49.712Z,21.4
2018-05-16T12:35:51.333Z,21.3
2018-05-16T12:36:52.954Z,21.3
2018-05-16T12:37:54.667Z,21.3
2018-05-16T12:38:56.201Z,21.3
2018-05-16T12:39:57.827Z,21.3
2018-05-16T12:40:59.453Z,21.4
2018-05-16T12:42:01.075Z,21.3
2018-05-16T12:43:02.703Z,21.1
2018-05-16T12:44:04.324Z,21.0
2018-05-16T12:45:05.972Z,21.0
2018-05-16T12:46:07.593Z,21.0
2018-05-16T12:47:09.220Z,20.9
2018-05-16T12:48:11.664Z,21.0
2018-05-16T12:49:13.296Z,21.1
2018-05-16T12:50:14.921Z,21.0
2018-05-16T12:51:16.538Z,20.9
2018-05-16T12:52:18.166Z,20.9
2018-05-16T12:53:19.790Z,20.9
2018-05-16T12:54:21.415Z,20.8
2018-05-16T12:55:23.035Z,20.7
2018-05-16T12:56:24.657Z,20.7
2018-05-16T12:57:26.284Z,20.7
2018-05-16T12:58:27.906Z,20.5
2018-05-16T12:59:29.532Z,20.6
2018-05-16T13:00:31.152Z,20.6
2018-05-16T13:01:32.792Z,20.6
2018-05-16T13:02:34.399Z,20.5
2018-05-16T13:03:36.027Z,20.4
2018-05-16T13:04:37.649Z,20.3
2018-05-16T13:05:39.267Z,20.3
2018-05-16T13:06:40.889Z,20.4
2018-05-16T13:07:42.509Z,20.4
2018-05-16T13:08:44.131Z,20.2
2018-05-16T13:09:45.761Z,20.2
2018-05-16T13:10:47.383Z,20.3
2018-05-16T13:11:49.011Z,20.4
2018-05-16T13:12:50.682Z,20.3
2018-05-16T13:13:52.261Z,20.4
2018-05-16T13:14:53.887Z,20.6
2018-05-16T13:15:55.509Z,20.8
2018-05-16T13:16:57.134Z,20.8
2018-05-16T13:17:58.775Z,21.2
2018-05-16T13:19:00.394Z,21.0
2018-05-16T13:20:02.015Z,21.2
2018-05-16T13:21:03.637Z,21.1
2018-05-16T13:22:05.264Z,21.2
2018-05-16T13:23:06.890Z,21.3
2018-05-16T13:24:08.516Z,21.1
2018-05-16T13:25:10.148Z,21.2
2018-05-16T13:26:11.770Z,21.1
2018-05-16T13:27:13.393Z,21.2
2018-05-16T13:28:15.013Z,20.9
2018-05-16T13:29:16.644Z,20.7
2018-05-16T13:30:18.259Z,20.4
2018-05-16T13:31:19.886Z,20.4
2018-05-16T13:32:21.513Z,20.4
2018-05-16T13:33:23.138Z,20.5
2018-05-16T13:34:24.758Z,20.4
2018-05-16T13:35:26.385Z,20.4
2018-05-16T13:36:28.014Z,20.3
2018-05-16T13:37:29.629Z,20.1
2018-05-16T13:38:31.256Z,20.2
2018-05-16T13:39:32.874Z,20.2
2018-05-16T13:40:34.504Z,20.2